sensor_id;sensor_type;location;lat;lon;timestamp;P1;durP1;ratioP1;P2;durP2;ratioP2
11066;SDS011;29763;50.904;5.530;2022-09-09T00:02:24;4.93;;;1.92;;
11066;SDS011;29763;50.904;5.530;2022-09-09T00:07:28;3.97;;;1.52;;
11066;SDS011;29763;50.904;5.530;2022-09-09T00:21:03;3.28;;;1.50;;
11066;SDS011;29763;50.904;5.530;2022-09-09T00:23:38;3.50;;;1.67;;
11066;SDS011;29763;50.904;5.530;2022-09-09T00:26:10;3.38;;;1.65;;
11066;SDS011;29763;50.904;5.530;2022-09-09T00:29:08;2.38;;;1.30;;
11066;SDS011;29763;50.904;5.530;2022-09-09T00:31:35;4.22;;;1.50;;
11066;SDS011;29763;50.904;5.530;2022-09-09T00:36:38;3.95;;;1.50;;
11066;SDS011;29763;50.904;5.530;2022-09-09T00:39:08;2.80;;;1.55;;
11066;SDS011;29763;50.904;5.530;2022-09-09T00:57:30;3.33;;;1.80;;
11066;SDS011;29763;50.904;5.530;2022-09-09T01:00:43;8.70;;;2.30;;
11066;SDS011;29763;50.904;5.530;2022-09-09T01:05:30;4.10;;;1.88;;
11066;SDS011;29763;50.904;5.530;2022-09-09T01:08:00;4.25;;;1.90;;
11066;SDS011;29763;50.904;5.530;2022-09-09T01:10:47;6.43;;;2.03;;
11066;SDS011;29763;50.904;5.530;2022-09-09T01:13:34;6.97;;;2.50;;
11066;SDS011;29763;50.904;5.530;2022-09-09T01:16:02;5.45;;;2.50;;
11066;SDS011;29763;50.904;5.530;2022-09-09T01:18:34;3.53;;;2.00;;
11066;SDS011;29763;50.904;5.530;2022-09-09T01:29:03;4.93;;;2.42;;
11066;SDS011;29763;50.904;5.530;2022-09-09T01:31:51;4.13;;;2.38;;
11066;SDS011;29763;50.904;5.530;2022-09-09T01:34:19;4.45;;;2.05;;
11066;SDS011;29763;50.904;5.530;2022-09-09T01:36:48;3.78;;;2.03;;
11066;SDS011;29763;50.904;5.530;2022-09-09T01:39:18;7.38;;;2.42;;
11066;SDS011;29763;50.904;5.530;2022-09-09T01:41:45;5.22;;;2.30;;
11066;SDS011;29763;50.904;5.530;2022-09-09T01:44:11;4.90;;;2.53;;
11066;SDS011;29763;50.904;5.530;2022-09-09T01:46:38;5.15;;;2.20;;
11066;SDS011;29763;50.904;5.530;2022-09-09T01:49:05;5.57;;;1.90;;
11066;SDS011;29763;50.904;5.530;2022-09-09T01:51:33;6.45;;;2.10;;
11066;SDS011;29763;50.904;5.530;2022-09-09T01:54:01;5.35;;;2.50;;
11066;SDS011;29763;50.904;5.530;2022-09-09T01:56:42;5.97;;;2.15;;
11066;SDS011;29763;50.904;5.530;2022-09-09T02:07:02;3.83;;;2.30;;
11066;SDS011;29763;50.904;5.530;2022-09-09T02:09:48;5.18;;;2.45;;
11066;SDS011;29763;50.904;5.530;2022-09-09T02:12:20;5.63;;;2.47;;
11066;SDS011;29763;50.904;5.530;2022-09-09T02:14:54;6.40;;;2.80;;
11066;SDS011;29763;50.904;5.530;2022-09-09T02:17:25;6.15;;;2.50;;
11066;SDS011;29763;50.904;5.530;2022-09-09T02:20:14;4.45;;;2.58;;
11066;SDS011;29763;50.904;5.530;2022-09-09T02:22:42;5.72;;;2.38;;
11066;SDS011;29763;50.904;5.530;2022-09-09T02:25:11;8.13;;;2.85;;
11066;SDS011;29763;50.904;5.530;2022-09-09T02:27:40;7.22;;;2.50;;
11066;SDS011;29763;50.904;5.530;2022-09-09T02:30:08;5.78;;;2.92;;
11066;SDS011;29763;50.904;5.530;2022-09-09T02:32:35;6.28;;;2.17;;
11066;SDS011;29763;50.904;5.530;2022-09-09T02:35:03;6.82;;;2.47;;
11066;SDS011;29763;50.904;5.530;2022-09-09T02:37:37;7.05;;;2.60;;
11066;SDS011;29763;50.904;5.530;2022-09-09T02:40:04;4.72;;;2.35;;
11066;SDS011;29763;50.904;5.530;2022-09-09T02:42:38;6.47;;;2.45;;
11066;SDS011;29763;50.904;5.530;2022-09-09T02:45:09;5.55;;;2.30;;
11066;SDS011;29763;50.904;5.530;2022-09-09T02:50:13;6.95;;;2.47;;
11066;SDS011;29763;50.904;5.530;2022-09-09T02:52:47;8.15;;;2.60;;
11066;SDS011;29763;50.904;5.530;2022-09-09T02:57:44;4.78;;;2.80;;
11066;SDS011;29763;50.904;5.530;2022-09-09T03:00:12;7.03;;;2.70;;
11066;SDS011;29763;50.904;5.530;2022-09-09T03:02:38;9.32;;;2.80;;
11066;SDS011;29763;50.904;5.530;2022-09-09T03:05:07;7.10;;;2.92;;
11066;SDS011;29763;50.904;5.530;2022-09-09T03:07:33;8.05;;;2.83;;
11066;SDS011;29763;50.904;5.530;2022-09-09T03:10:07;7.68;;;3.00;;
11066;SDS011;29763;50.904;5.530;2022-09-09T03:12:33;6.00;;;3.00;;
11066;SDS011;29763;50.904;5.530;2022-09-09T03:14:59;8.80;;;3.20;;
11066;SDS011;29763;50.904;5.530;2022-09-09T03:17:25;7.13;;;3.42;;
11066;SDS011;29763;50.904;5.530;2022-09-09T03:19:53;7.35;;;3.72;;
11066;SDS011;29763;50.904;5.530;2022-09-09T03:22:23;5.72;;;3.67;;
11066;SDS011;29763;50.904;5.530;2022-09-09T03:24:55;10.20;;;3.75;;
11066;SDS011;29763;50.904;5.530;2022-09-09T03:27:20;9.65;;;3.10;;
11066;SDS011;29763;50.904;5.530;2022-09-09T03:29:46;8.60;;;3.28;;
11066;SDS011;29763;50.904;5.530;2022-09-09T03:32:17;7.55;;;3.38;;
11066;SDS011;29763;50.904;5.530;2022-09-09T03:34:43;7.43;;;3.03;;
11066;SDS011;29763;50.904;5.530;2022-09-09T03:37:09;9.32;;;3.35;;
11066;SDS011;29763;50.904;5.530;2022-09-09T03:39:35;8.43;;;3.10;;
11066;SDS011;29763;50.904;5.530;2022-09-09T03:42:01;6.47;;;3.10;;
11066;SDS011;29763;50.904;5.530;2022-09-09T03:44:30;7.30;;;3.30;;
11066;SDS011;29763;50.904;5.530;2022-09-09T03:46:59;10.45;;;3.85;;
11066;SDS011;29763;50.904;5.530;2022-09-09T03:49:25;8.32;;;3.08;;
11066;SDS011;29763;50.904;5.530;2022-09-09T03:51:55;9.70;;;3.50;;
11066;SDS011;29763;50.904;5.530;2022-09-09T03:54:23;12.38;;;3.50;;
11066;SDS011;29763;50.904;5.530;2022-09-09T03:56:49;9.27;;;3.88;;
11066;SDS011;29763;50.904;5.530;2022-09-09T03:59:15;7.35;;;3.15;;
11066;SDS011;29763;50.904;5.530;2022-09-09T04:01:52;8.75;;;3.53;;
11066;SDS011;29763;50.904;5.530;2022-09-09T04:04:19;7.68;;;3.35;;
11066;SDS011;29763;50.904;5.530;2022-09-09T04:06:48;8.95;;;3.80;;
11066;SDS011;29763;50.904;5.530;2022-09-09T04:09:16;8.57;;;3.22;;
11066;SDS011;29763;50.904;5.530;2022-09-09T04:11:41;9.15;;;3.78;;
11066;SDS011;29763;50.904;5.530;2022-09-09T04:14:07;8.10;;;3.03;;
11066;SDS011;29763;50.904;5.530;2022-09-09T04:16:34;9.75;;;4.03;;
11066;SDS011;29763;50.904;5.530;2022-09-09T04:19:05;9.02;;;3.97;;
11066;SDS011;29763;50.904;5.530;2022-09-09T04:21:32;9.25;;;4.35;;
11066;SDS011;29763;50.904;5.530;2022-09-09T04:23:58;11.10;;;4.82;;
11066;SDS011;29763;50.904;5.530;2022-09-09T04:26:30;11.10;;;5.43;;
11066;SDS011;29763;50.904;5.530;2022-09-09T04:29:00;13.40;;;6.68;;
11066;SDS011;29763;50.904;5.530;2022-09-09T04:31:29;12.77;;;6.18;;
11066;SDS011;29763;50.904;5.530;2022-09-09T04:33:55;14.23;;;5.78;;
11066;SDS011;29763;50.904;5.530;2022-09-09T04:36:21;10.73;;;5.00;;
11066;SDS011;29763;50.904;5.530;2022-09-09T04:38:47;9.90;;;5.43;;
11066;SDS011;29763;50.904;5.530;2022-09-09T04:41:16;12.88;;;5.57;;
11066;SDS011;29763;50.904;5.530;2022-09-09T04:43:42;13.23;;;4.72;;
11066;SDS011;29763;50.904;5.530;2022-09-09T04:46:11;8.07;;;3.95;;
11066;SDS011;29763;50.904;5.530;2022-09-09T04:48:37;9.85;;;3.80;;
11066;SDS011;29763;50.904;5.530;2022-09-09T04:51:10;6.55;;;3.22;;
11066;SDS011;29763;50.904;5.530;2022-09-09T04:53:39;7.00;;;3.17;;
11066;SDS011;29763;50.904;5.530;2022-09-09T04:58:36;8.35;;;3.30;;
11066;SDS011;29763;50.904;5.530;2022-09-09T05:01:03;8.18;;;3.25;;
11066;SDS011;29763;50.904;5.530;2022-09-09T05:03:32;8.35;;;2.90;;
11066;SDS011;29763;50.904;5.530;2022-09-09T05:06:06;9.18;;;3.17;;
11066;SDS011;29763;50.904;5.530;2022-09-09T05:08:37;10.00;;;3.58;;
11066;SDS011;29763;50.904;5.530;2022-09-09T05:11:18;8.57;;;2.90;;
11066;SDS011;29763;50.904;5.530;2022-09-09T05:13:51;7.95;;;3.03;;
11066;SDS011;29763;50.904;5.530;2022-09-09T05:16:18;9.35;;;3.25;;
11066;SDS011;29763;50.904;5.530;2022-09-09T05:19:07;8.77;;;2.70;;
11066;SDS011;29763;50.904;5.530;2022-09-09T05:21:34;6.60;;;2.72;;
11066;SDS011;29763;50.904;5.530;2022-09-09T05:24:00;7.78;;;2.90;;
11066;SDS011;29763;50.904;5.530;2022-09-09T05:26:29;6.70;;;2.80;;
11066;SDS011;29763;50.904;5.530;2022-09-09T05:28:57;5.68;;;2.40;;
11066;SDS011;29763;50.904;5.530;2022-09-09T05:31:28;9.23;;;2.75;;
11066;SDS011;29763;50.904;5.530;2022-09-09T05:33:55;7.32;;;2.53;;
11066;SDS011;29763;50.904;5.530;2022-09-09T05:36:22;8.75;;;2.63;;
11066;SDS011;29763;50.904;5.530;2022-09-09T05:38:51;9.15;;;2.47;;
11066;SDS011;29763;50.904;5.530;2022-09-09T05:41:19;6.40;;;2.30;;
11066;SDS011;29763;50.904;5.530;2022-09-09T05:43:45;11.70;;;3.08;;
11066;SDS011;29763;50.904;5.530;2022-09-09T05:46:17;6.55;;;2.40;;
11066;SDS011;29763;50.904;5.530;2022-09-09T05:48:55;8.95;;;2.88;;
11066;SDS011;29763;50.904;5.530;2022-09-09T05:51:25;8.45;;;2.72;;
11066;SDS011;29763;50.904;5.530;2022-09-09T05:53:54;6.97;;;2.38;;
11066;SDS011;29763;50.904;5.530;2022-09-09T05:56:24;7.55;;;2.80;;
11066;SDS011;29763;50.904;5.530;2022-09-09T05:58:52;6.35;;;2.40;;
11066;SDS011;29763;50.904;5.530;2022-09-09T06:01:20;5.90;;;2.40;;
11066;SDS011;29763;50.904;5.530;2022-09-09T06:03:54;6.57;;;2.75;;
11066;SDS011;29763;50.904;5.530;2022-09-09T06:06:27;10.77;;;3.00;;
11066;SDS011;29763;50.904;5.530;2022-09-09T06:09:02;7.22;;;2.50;;
11066;SDS011;29763;50.904;5.530;2022-09-09T06:11:31;9.00;;;2.65;;
11066;SDS011;29763;50.904;5.530;2022-09-09T06:13:58;9.05;;;2.70;;
11066;SDS011;29763;50.904;5.530;2022-09-09T06:16:25;8.27;;;2.55;;
11066;SDS011;29763;50.904;5.530;2022-09-09T06:18:56;7.45;;;2.50;;
11066;SDS011;29763;50.904;5.530;2022-09-09T06:21:26;6.53;;;2.50;;
11066;SDS011;29763;50.904;5.530;2022-09-09T06:23:57;7.63;;;2.70;;
11066;SDS011;29763;50.904;5.530;2022-09-09T06:26:30;6.85;;;2.45;;
11066;SDS011;29763;50.904;5.530;2022-09-09T06:28:58;7.57;;;2.45;;
11066;SDS011;29763;50.904;5.530;2022-09-09T06:31:26;5.32;;;2.33;;
11066;SDS011;29763;50.904;5.530;2022-09-09T06:33:55;6.55;;;2.33;;
11066;SDS011;29763;50.904;5.530;2022-09-09T06:36:22;6.35;;;2.38;;
11066;SDS011;29763;50.904;5.530;2022-09-09T06:38:50;11.45;;;3.13;;
11066;SDS011;29763;50.904;5.530;2022-09-09T06:41:17;5.95;;;2.38;;
11066;SDS011;29763;50.904;5.530;2022-09-09T06:43:45;5.45;;;2.50;;
11066;SDS011;29763;50.904;5.530;2022-09-09T06:46:12;5.53;;;2.55;;
11066;SDS011;29763;50.904;5.530;2022-09-09T06:48:42;7.97;;;2.83;;
11066;SDS011;29763;50.904;5.530;2022-09-09T06:51:12;8.65;;;2.60;;
11066;SDS011;29763;50.904;5.530;2022-09-09T06:53:40;5.55;;;2.28;;
11066;SDS011;29763;50.904;5.530;2022-09-09T06:58:39;10.20;;;2.55;;
11066;SDS011;29763;50.904;5.530;2022-09-09T07:01:19;5.40;;;2.15;;
11066;SDS011;29763;50.904;5.530;2022-09-09T07:03:49;6.63;;;2.05;;
11066;SDS011;29763;50.904;5.530;2022-09-09T07:06:17;6.60;;;2.10;;
11066;SDS011;29763;50.904;5.530;2022-09-09T07:08:51;5.03;;;2.25;;
11066;SDS011;29763;50.904;5.530;2022-09-09T07:11:18;5.38;;;1.90;;
11066;SDS011;29763;50.904;5.530;2022-09-09T07:13:45;7.15;;;2.20;;
11066;SDS011;29763;50.904;5.530;2022-09-09T07:16:13;7.95;;;2.40;;
11066;SDS011;29763;50.904;5.530;2022-09-09T07:18:40;8.43;;;2.20;;
11066;SDS011;29763;50.904;5.530;2022-09-09T07:21:07;6.30;;;1.88;;
11066;SDS011;29763;50.904;5.530;2022-09-09T07:23:34;6.38;;;2.08;;
11066;SDS011;29763;50.904;5.530;2022-09-09T07:26:07;6.13;;;2.10;;
11066;SDS011;29763;50.904;5.530;2022-09-09T07:28:37;6.50;;;2.15;;
11066;SDS011;29763;50.904;5.530;2022-09-09T07:31:03;5.93;;;2.40;;
11066;SDS011;29763;50.904;5.530;2022-09-09T07:33:31;6.30;;;1.90;;
11066;SDS011;29763;50.904;5.530;2022-09-09T07:36:02;7.40;;;2.25;;
11066;SDS011;29763;50.904;5.530;2022-09-09T07:38:37;8.88;;;2.25;;
11066;SDS011;29763;50.904;5.530;2022-09-09T07:41:08;8.75;;;2.60;;
11066;SDS011;29763;50.904;5.530;2022-09-09T07:43:39;7.72;;;2.53;;
11066;SDS011;29763;50.904;5.530;2022-09-09T07:46:06;5.50;;;1.98;;
11066;SDS011;29763;50.904;5.530;2022-09-09T07:48:33;7.03;;;2.10;;
11066;SDS011;29763;50.904;5.530;2022-09-09T07:51:09;6.90;;;1.90;;
11066;SDS011;29763;50.904;5.530;2022-09-09T07:53:40;5.78;;;2.38;;
11066;SDS011;29763;50.904;5.530;2022-09-09T07:56:08;6.00;;;2.17;;
11066;SDS011;29763;50.904;5.530;2022-09-09T07:58:36;6.95;;;2.30;;
11066;SDS011;29763;50.904;5.530;2022-09-09T08:01:09;7.18;;;2.20;;
11066;SDS011;29763;50.904;5.530;2022-09-09T08:03:38;5.95;;;2.30;;
11066;SDS011;29763;50.904;5.530;2022-09-09T08:06:04;5.22;;;1.88;;
11066;SDS011;29763;50.904;5.530;2022-09-09T08:08:32;9.00;;;2.20;;
11066;SDS011;29763;50.904;5.530;2022-09-09T08:11:06;9.40;;;2.13;;
11066;SDS011;29763;50.904;5.530;2022-09-09T08:13:36;5.88;;;1.90;;
11066;SDS011;29763;50.904;5.530;2022-09-09T08:18:36;9.30;;;2.00;;
11066;SDS011;29763;50.904;5.530;2022-09-09T08:21:06;3.85;;;1.90;;
11066;SDS011;29763;50.904;5.530;2022-09-09T08:23:41;5.40;;;1.95;;
11066;SDS011;29763;50.904;5.530;2022-09-09T08:26:12;7.30;;;2.33;;
11066;SDS011;29763;50.904;5.530;2022-09-09T08:28:40;7.07;;;2.42;;
11066;SDS011;29763;50.904;5.530;2022-09-09T08:31:10;7.72;;;2.50;;
11066;SDS011;29763;50.904;5.530;2022-09-09T08:33:41;8.88;;;2.50;;
11066;SDS011;29763;50.904;5.530;2022-09-09T08:36:10;3.72;;;1.80;;
11066;SDS011;29763;50.904;5.530;2022-09-09T08:38:39;5.95;;;2.30;;
11066;SDS011;29763;50.904;5.530;2022-09-09T08:43:43;5.15;;;1.98;;
11066;SDS011;29763;50.904;5.530;2022-09-09T08:46:14;6.35;;;2.28;;
11066;SDS011;29763;50.904;5.530;2022-09-09T08:49:11;7.35;;;2.00;;
11066;SDS011;29763;50.904;5.530;2022-09-09T08:51:48;5.78;;;1.55;;
11066;SDS011;29763;50.904;5.530;2022-09-09T08:54:15;8.45;;;2.13;;
11066;SDS011;29763;50.904;5.530;2022-09-09T08:56:41;5.65;;;1.85;;
11066;SDS011;29763;50.904;5.530;2022-09-09T08:59:07;7.40;;;2.15;;
11066;SDS011;29763;50.904;5.530;2022-09-09T09:01:49;5.43;;;2.08;;
11066;SDS011;29763;50.904;5.530;2022-09-09T09:12:38;3.58;;;1.77;;
11066;SDS011;29763;50.904;5.530;2022-09-09T09:15:11;7.05;;;2.15;;
11066;SDS011;29763;50.904;5.530;2022-09-09T09:17:44;5.78;;;1.92;;
11066;SDS011;29763;50.904;5.530;2022-09-09T09:20:14;8.75;;;2.08;;
11066;SDS011;29763;50.904;5.530;2022-09-09T09:22:47;6.80;;;2.33;;
11066;SDS011;29763;50.904;5.530;2022-09-09T09:27:49;6.00;;;2.20;;
11066;SDS011;29763;50.904;5.530;2022-09-09T09:33:47;4.97;;;1.90;;
11066;SDS011;29763;50.904;5.530;2022-09-09T09:36:18;7.40;;;2.03;;
11066;SDS011;29763;50.904;5.530;2022-09-09T09:38:56;4.18;;;2.17;;
11066;SDS011;29763;50.904;5.530;2022-09-09T09:41:33;4.90;;;1.80;;
11066;SDS011;29763;50.904;5.530;2022-09-09T09:44:04;4.57;;;1.50;;
11066;SDS011;29763;50.904;5.530;2022-09-09T09:46:31;4.93;;;1.70;;
11066;SDS011;29763;50.904;5.530;2022-09-09T09:49:02;4.60;;;1.80;;
11066;SDS011;29763;50.904;5.530;2022-09-09T09:51:30;5.03;;;1.90;;
11066;SDS011;29763;50.904;5.530;2022-09-09T09:57:08;5.63;;;1.67;;
11066;SDS011;29763;50.904;5.530;2022-09-09T09:59:36;5.03;;;1.70;;
11066;SDS011;29763;50.904;5.530;2022-09-09T10:02:23;4.95;;;2.20;;
11066;SDS011;29763;50.904;5.530;2022-09-09T10:07:47;3.92;;;1.73;;
11066;SDS011;29763;50.904;5.530;2022-09-09T10:10:26;5.00;;;1.83;;
11066;SDS011;29763;50.904;5.530;2022-09-09T10:13:13;4.75;;;1.55;;
11066;SDS011;29763;50.904;5.530;2022-09-09T10:29:26;3.95;;;1.90;;
11066;SDS011;29763;50.904;5.530;2022-09-09T10:33:10;4.68;;;1.90;;
11066;SDS011;29763;50.904;5.530;2022-09-09T10:35:30;4.75;;;1.95;;
11066;SDS011;29763;50.904;5.530;2022-09-09T10:38:24;4.95;;;2.00;;
11066;SDS011;29763;50.904;5.530;2022-09-09T10:55:19;6.72;;;2.38;;
11066;SDS011;29763;50.904;5.530;2022-09-09T10:57:51;7.93;;;2.70;;
11066;SDS011;29763;50.904;5.530;2022-09-09T11:00:21;5.05;;;2.22;;
11066;SDS011;29763;50.904;5.530;2022-09-09T11:03:28;7.90;;;2.95;;
11066;SDS011;29763;50.904;5.530;2022-09-09T11:05:56;6.38;;;2.50;;
11066;SDS011;29763;50.904;5.530;2022-09-09T11:08:30;7.07;;;2.38;;
11066;SDS011;29763;50.904;5.530;2022-09-09T11:11:03;4.63;;;2.00;;
11066;SDS011;29763;50.904;5.530;2022-09-09T11:16:21;9.10;;;2.67;;
11066;SDS011;29763;50.904;5.530;2022-09-09T11:19:11;5.15;;;1.88;;
11066;SDS011;29763;50.904;5.530;2022-09-09T11:21:46;4.78;;;2.30;;
11066;SDS011;29763;50.904;5.530;2022-09-09T11:30:37;3.42;;;1.67;;
11066;SDS011;29763;50.904;5.530;2022-09-09T11:42:15;6.63;;;2.20;;
11066;SDS011;29763;50.904;5.530;2022-09-09T11:44:43;5.57;;;2.00;;
11066;SDS011;29763;50.904;5.530;2022-09-09T11:47:26;9.02;;;2.38;;
11066;SDS011;29763;50.904;5.530;2022-09-09T11:52:41;5.20;;;2.33;;
11066;SDS011;29763;50.904;5.530;2022-09-09T11:55:27;6.53;;;2.40;;
11066;SDS011;29763;50.904;5.530;2022-09-09T11:58:02;9.57;;;2.65;;
11066;SDS011;29763;50.904;5.530;2022-09-09T12:03:30;4.97;;;1.98;;
11066;SDS011;29763;50.904;5.530;2022-09-09T12:09:13;5.45;;;2.05;;
11066;SDS011;29763;50.904;5.530;2022-09-09T12:19:47;6.72;;;2.35;;
11066;SDS011;29763;50.904;5.530;2022-09-09T12:22:50;4.90;;;1.90;;
11066;SDS011;29763;50.904;5.530;2022-09-09T12:33:16;7.43;;;2.30;;
11066;SDS011;29763;50.904;5.530;2022-09-09T12:35:43;3.22;;;1.50;;
11066;SDS011;29763;50.904;5.530;2022-09-09T12:38:13;4.20;;;1.35;;
11066;SDS011;29763;50.904;5.530;2022-09-09T12:40:57;4.07;;;1.50;;
11066;SDS011;29763;50.904;5.530;2022-09-09T12:43:24;4.32;;;1.45;;
11066;SDS011;29763;50.904;5.530;2022-09-09T12:45:51;2.88;;;1.13;;
11066;SDS011;29763;50.904;5.530;2022-09-09T12:48:25;4.85;;;1.60;;
11066;SDS011;29763;50.904;5.530;2022-09-09T12:50:56;4.50;;;1.83;;
11066;SDS011;29763;50.904;5.530;2022-09-09T12:53:23;2.97;;;1.55;;
11066;SDS011;29763;50.904;5.530;2022-09-09T12:58:25;6.78;;;2.08;;
11066;SDS011;29763;50.904;5.530;2022-09-09T13:00:57;4.53;;;1.80;;
11066;SDS011;29763;50.904;5.530;2022-09-09T13:03:25;6.20;;;2.00;;
11066;SDS011;29763;50.904;5.530;2022-09-09T13:05:52;5.03;;;1.55;;
11066;SDS011;29763;50.904;5.530;2022-09-09T13:08:25;4.43;;;1.80;;
11066;SDS011;29763;50.904;5.530;2022-09-09T13:11:02;5.15;;;2.13;;
11066;SDS011;29763;50.904;5.530;2022-09-09T13:13:37;4.30;;;2.00;;
11066;SDS011;29763;50.904;5.530;2022-09-09T13:16:05;5.07;;;2.00;;
11066;SDS011;29763;50.904;5.530;2022-09-09T13:18:43;5.00;;;1.58;;
11066;SDS011;29763;50.904;5.530;2022-09-09T13:21:08;5.38;;;2.08;;
11066;SDS011;29763;50.904;5.530;2022-09-09T13:23:38;8.65;;;2.10;;
11066;SDS011;29763;50.904;5.530;2022-09-09T13:26:25;4.70;;;2.17;;
11066;SDS011;29763;50.904;5.530;2022-09-09T13:28:51;6.18;;;2.70;;
11066;SDS011;29763;50.904;5.530;2022-09-09T13:33:58;3.97;;;2.20;;
11066;SDS011;29763;50.904;5.530;2022-09-09T13:36:31;3.88;;;2.33;;
11066;SDS011;29763;50.904;5.530;2022-09-09T13:39:00;5.30;;;2.70;;
11066;SDS011;29763;50.904;5.530;2022-09-09T13:42:01;6.03;;;2.13;;
11066;SDS011;29763;50.904;5.530;2022-09-09T13:44:21;5.25;;;2.05;;
11066;SDS011;29763;50.904;5.530;2022-09-09T13:47:06;4.28;;;2.30;;
11066;SDS011;29763;50.904;5.530;2022-09-09T13:49:58;5.95;;;2.08;;
11066;SDS011;29763;50.904;5.530;2022-09-09T13:52:34;5.10;;;2.30;;
11066;SDS011;29763;50.904;5.530;2022-09-09T13:55:00;3.95;;;1.80;;
11066;SDS011;29763;50.904;5.530;2022-09-09T13:57:26;5.43;;;2.17;;
11066;SDS011;29763;50.904;5.530;2022-09-09T13:59:52;4.43;;;2.10;;
11066;SDS011;29763;50.904;5.530;2022-09-09T14:02:20;2.95;;;1.67;;
11066;SDS011;29763;50.904;5.530;2022-09-09T14:04:48;4.00;;;1.73;;
11066;SDS011;29763;50.904;5.530;2022-09-09T14:07:16;3.22;;;1.98;;
11066;SDS011;29763;50.904;5.530;2022-09-09T14:09:42;3.97;;;1.73;;
11066;SDS011;29763;50.904;5.530;2022-09-09T14:12:10;3.80;;;1.80;;
11066;SDS011;29763;50.904;5.530;2022-09-09T14:14:36;6.18;;;2.22;;
11066;SDS011;29763;50.904;5.530;2022-09-09T14:17:02;4.05;;;1.77;;
11066;SDS011;29763;50.904;5.530;2022-09-09T14:19:28;5.68;;;2.10;;
11066;SDS011;29763;50.904;5.530;2022-09-09T14:21:56;5.38;;;1.90;;
11066;SDS011;29763;50.904;5.530;2022-09-09T14:24:22;5.97;;;2.08;;
11066;SDS011;29763;50.904;5.530;2022-09-09T14:26:48;4.18;;;1.88;;
11066;SDS011;29763;50.904;5.530;2022-09-09T14:29:14;6.68;;;2.38;;
11066;SDS011;29763;50.904;5.530;2022-09-09T14:31:40;5.65;;;2.10;;
11066;SDS011;29763;50.904;5.530;2022-09-09T14:34:06;3.58;;;1.70;;
11066;SDS011;29763;50.904;5.530;2022-09-09T14:36:32;4.60;;;1.80;;
11066;SDS011;29763;50.904;5.530;2022-09-09T14:38:58;3.83;;;1.90;;
11066;SDS011;29763;50.904;5.530;2022-09-09T14:41:24;3.72;;;2.10;;
11066;SDS011;29763;50.904;5.530;2022-09-09T14:43:50;3.90;;;1.77;;
11066;SDS011;29763;50.904;5.530;2022-09-09T14:46:17;5.03;;;2.05;;
11066;SDS011;29763;50.904;5.530;2022-09-09T14:48:44;3.67;;;1.90;;
11066;SDS011;29763;50.904;5.530;2022-09-09T14:51:23;4.88;;;1.90;;
11066;SDS011;29763;50.904;5.530;2022-09-09T14:53:53;4.00;;;1.90;;
11066;SDS011;29763;50.904;5.530;2022-09-09T14:56:21;4.57;;;1.80;;
11066;SDS011;29763;50.904;5.530;2022-09-09T14:58:49;5.20;;;1.90;;
11066;SDS011;29763;50.904;5.530;2022-09-09T15:01:17;3.55;;;2.20;;
11066;SDS011;29763;50.904;5.530;2022-09-09T15:03:48;3.90;;;1.90;;
11066;SDS011;29763;50.904;5.530;2022-09-09T15:06:16;5.93;;;2.10;;
11066;SDS011;29763;50.904;5.530;2022-09-09T15:08:42;3.28;;;1.40;;
11066;SDS011;29763;50.904;5.530;2022-09-09T15:11:10;4.50;;;2.13;;
11066;SDS011;29763;50.904;5.530;2022-09-09T15:13:40;4.60;;;1.77;;
11066;SDS011;29763;50.904;5.530;2022-09-09T15:16:11;4.75;;;1.67;;
11066;SDS011;29763;50.904;5.530;2022-09-09T15:18:41;4.18;;;1.58;;
11066;SDS011;29763;50.904;5.530;2022-09-09T15:21:09;2.88;;;1.60;;
11066;SDS011;29763;50.904;5.530;2022-09-09T15:23:36;3.92;;;1.75;;
11066;SDS011;29763;50.904;5.530;2022-09-09T15:26:02;2.47;;;1.35;;
11066;SDS011;29763;50.904;5.530;2022-09-09T15:28:29;2.72;;;1.88;;
11066;SDS011;29763;50.904;5.530;2022-09-09T15:30:57;3.72;;;1.83;;
11066;SDS011;29763;50.904;5.530;2022-09-09T15:33:24;7.22;;;2.30;;
11066;SDS011;29763;50.904;5.530;2022-09-09T15:35:50;2.83;;;1.60;;
11066;SDS011;29763;50.904;5.530;2022-09-09T15:38:16;2.50;;;1.73;;
11066;SDS011;29763;50.904;5.530;2022-09-09T15:40:44;3.53;;;1.70;;
11066;SDS011;29763;50.904;5.530;2022-09-09T15:43:18;3.47;;;1.85;;
11066;SDS011;29763;50.904;5.530;2022-09-09T15:45:44;6.15;;;2.08;;
11066;SDS011;29763;50.904;5.530;2022-09-09T15:48:13;5.78;;;2.15;;
11066;SDS011;29763;50.904;5.530;2022-09-09T15:50:39;4.93;;;2.10;;
11066;SDS011;29763;50.904;5.530;2022-09-09T15:53:05;5.97;;;2.08;;
11066;SDS011;29763;50.904;5.530;2022-09-09T15:55:31;7.22;;;2.30;;
11066;SDS011;29763;50.904;5.530;2022-09-09T15:57:56;4.53;;;2.05;;
11066;SDS011;29763;50.904;5.530;2022-09-09T16:00:22;4.82;;;2.28;;
11066;SDS011;29763;50.904;5.530;2022-09-09T16:02:49;5.53;;;2.17;;
11066;SDS011;29763;50.904;5.530;2022-09-09T16:05:15;4.07;;;2.35;;
11066;SDS011;29763;50.904;5.530;2022-09-09T16:07:41;4.82;;;2.38;;
11066;SDS011;29763;50.904;5.530;2022-09-09T16:10:07;5.00;;;1.85;;
11066;SDS011;29763;50.904;5.530;2022-09-09T16:12:34;4.35;;;2.03;;
11066;SDS011;29763;50.904;5.530;2022-09-09T16:15:00;4.25;;;1.95;;
11066;SDS011;29763;50.904;5.530;2022-09-09T16:17:26;5.53;;;1.73;;
11066;SDS011;29763;50.904;5.530;2022-09-09T16:19:52;4.10;;;2.17;;
11066;SDS011;29763;50.904;5.530;2022-09-09T16:22:19;3.35;;;1.80;;
11066;SDS011;29763;50.904;5.530;2022-09-09T16:24:45;3.22;;;1.83;;
11066;SDS011;29763;50.904;5.530;2022-09-09T16:27:11;5.47;;;1.92;;
11066;SDS011;29763;50.904;5.530;2022-09-09T16:29:36;3.97;;;2.03;;
11066;SDS011;29763;50.904;5.530;2022-09-09T16:32:02;4.63;;;2.00;;
11066;SDS011;29763;50.904;5.530;2022-09-09T16:34:28;6.47;;;2.47;;
11066;SDS011;29763;50.904;5.530;2022-09-09T16:36:54;4.15;;;2.10;;
11066;SDS011;29763;50.904;5.530;2022-09-09T16:39:21;4.57;;;2.05;;
11066;SDS011;29763;50.904;5.530;2022-09-09T16:41:47;6.43;;;2.22;;
11066;SDS011;29763;50.904;5.530;2022-09-09T16:44:14;8.57;;;2.70;;
11066;SDS011;29763;50.904;5.530;2022-09-09T16:46:43;4.20;;;2.25;;
11066;SDS011;29763;50.904;5.530;2022-09-09T16:49:11;6.57;;;2.40;;
11066;SDS011;29763;50.904;5.530;2022-09-09T16:51:43;5.38;;;2.22;;
11066;SDS011;29763;50.904;5.530;2022-09-09T16:54:14;5.50;;;2.17;;
11066;SDS011;29763;50.904;5.530;2022-09-09T16:56:42;3.65;;;2.33;;
11066;SDS011;29763;50.904;5.530;2022-09-09T16:59:11;5.22;;;2.42;;
11066;SDS011;29763;50.904;5.530;2022-09-09T17:01:41;7.07;;;2.95;;
11066;SDS011;29763;50.904;5.530;2022-09-09T17:04:09;7.32;;;3.15;;
11066;SDS011;29763;50.904;5.530;2022-09-09T17:06:38;11.25;;;3.80;;
11066;SDS011;29763;50.904;5.530;2022-09-09T17:09:07;5.65;;;2.88;;
11066;SDS011;29763;50.904;5.530;2022-09-09T17:11:35;8.15;;;3.60;;
11066;SDS011;29763;50.904;5.530;2022-09-09T17:14:02;8.07;;;3.10;;
11066;SDS011;29763;50.904;5.530;2022-09-09T17:16:29;5.68;;;2.38;;
11066;SDS011;29763;50.904;5.530;2022-09-09T17:18:57;5.28;;;2.25;;
11066;SDS011;29763;50.904;5.530;2022-09-09T17:21:24;6.00;;;2.72;;
11066;SDS011;29763;50.904;5.530;2022-09-09T17:23:52;6.15;;;2.60;;
11066;SDS011;29763;50.904;5.530;2022-09-09T17:26:19;7.50;;;2.60;;
11066;SDS011;29763;50.904;5.530;2022-09-09T17:28:46;3.55;;;2.03;;
11066;SDS011;29763;50.904;5.530;2022-09-09T17:31:13;5.03;;;2.53;;
11066;SDS011;29763;50.904;5.530;2022-09-09T17:33:42;5.53;;;2.50;;
11066;SDS011;29763;50.904;5.530;2022-09-09T17:36:14;4.93;;;2.15;;
11066;SDS011;29763;50.904;5.530;2022-09-09T17:38:45;4.63;;;2.20;;
11066;SDS011;29763;50.904;5.530;2022-09-09T17:41:13;4.22;;;1.75;;
11066;SDS011;29763;50.904;5.530;2022-09-09T17:43:39;5.55;;;2.40;;
11066;SDS011;29763;50.904;5.530;2022-09-09T17:46:15;3.83;;;2.17;;
11066;SDS011;29763;50.904;5.530;2022-09-09T17:48:44;3.50;;;2.17;;
11066;SDS011;29763;50.904;5.530;2022-09-09T17:51:14;2.88;;;1.98;;